createdAt,value
2018-12-07T00:01:34.154Z,99319.33
2018-12-07T00:04:02.728Z,99318.70
2018-12-07T00:06:31.408Z,99315.33
2018-12-07T00:08:59.953Z,99316.55
2018-12-07T00:11:28.484Z,99316.41
2018-12-07T00:13:57.001Z,99299.70
2018-12-07T00:16:25.594Z,99302.16
2018-12-07T00:18:54.129Z,99302.80
2018-12-07T00:21:23.094Z,99283.75
2018-12-07T00:23:52.476Z,99289.84
2018-12-07T00:26:21.135Z,99282.22
2018-12-07T00:28:49.756Z,99282.28
2018-12-07T00:31:18.465Z,99279.07
2018-12-07T00:33:47.050Z,99283.95
2018-12-07T00:36:15.713Z,99286.27
2018-12-07T00:38:44.219Z,99282.48
2018-12-07T00:41:12.700Z,99280.95
2018-12-07T00:43:41.492Z,99275.55
2018-12-07T00:46:10.042Z,99285.85
2018-12-07T00:48:38.590Z,99283.41
2018-12-07T00:51:07.163Z,99278.77
2018-12-07T00:53:35.706Z,99279.41
2018-12-07T00:56:04.247Z,99279.20
2018-12-07T00:58:33.091Z,99279.95
2018-12-07T01:01:02.626Z,99277.44
2018-12-07T01:03:31.909Z,99271.56
2018-12-07T01:06:00.665Z,99272.83
2018-12-07T01:08:29.366Z,99273.30
2018-12-07T01:10:58.153Z,99272.62
2018-12-07T01:13:28.164Z,99271.94
2018-12-07T01:15:56.843Z,99270.06
2018-12-07T01:18:25.942Z,99265.84
2018-12-07T01:20:54.721Z,99272.42
2018-12-07T01:23:23.903Z,99271.09
2018-12-07T01:25:52.522Z,99270.25
2018-12-07T01:28:21.276Z,99270.10
2018-12-07T01:30:49.979Z,99267.30
2018-12-07T01:33:18.564Z,99271.52
2018-12-07T01:35:47.408Z,99264.60
2018-12-07T01:38:16.045Z,99267.53
2018-12-07T01:40:45.371Z,99256.05
2018-12-07T01:43:13.883Z,99255.41
2018-12-07T01:45:42.502Z,99249.85
2018-12-07T01:48:11.068Z,99238.18
2018-12-07T01:50:39.569Z,99240.33
2018-12-07T01:53:08.081Z,99237.09
2018-12-07T01:55:36.569Z,99241.73
2018-12-07T01:58:05.810Z,99243.30
2018-12-07T02:00:34.446Z,99243.77
2018-12-07T02:03:03.056Z,99244.77
2018-12-07T02:05:31.584Z,99243.77
2018-12-07T02:08:00.192Z,99234.05
2018-12-07T02:10:29.052Z,99227.26
2018-12-07T02:12:57.659Z,99221.16
2018-12-07T02:15:27.131Z,99214.30
2018-12-07T02:17:55.619Z,99211.56
2018-12-07T02:20:24.118Z,99217.03
2018-12-07T02:22:52.721Z,99210.95
2018-12-07T02:25:21.308Z,99214.19
2018-12-07T02:27:55.094Z,99210.95
2018-12-07T02:30:23.615Z,99198.84
2018-12-07T02:32:52.175Z,99209.69
2018-12-07T02:35:21.204Z,99200.84
2018-12-07T02:37:49.679Z,99196.69
2018-12-07T02:40:18.239Z,99193.84
2018-12-07T02:42:47.028Z,99199.20
2018-12-07T02:45:15.507Z,99197.42
2018-12-07T02:47:44.045Z,99202.01
2018-12-07T02:50:12.583Z,99199.00
2018-12-07T02:52:41.166Z,99199.97
2018-12-07T02:55:09.679Z,99194.64
2018-12-07T02:57:38.208Z,99195.97
2018-12-07T03:00:08.387Z,99195.70
2018-12-07T03:02:36.905Z,99184.17
2018-12-07T03:05:05.802Z,99185.13
2018-12-07T03:07:34.501Z,99183.66
2018-12-07T03:10:17.299Z,99187.61
2018-12-07T03:12:57.705Z,99184.09
2018-12-07T03:15:39.209Z,99184.00
2018-12-07T03:18:17.769Z,99179.12
2018-12-07T03:20:47.585Z,99177.11
2018-12-07T03:23:16.095Z,99173.05
2018-12-07T03:25:44.661Z,99166.26
2018-12-07T03:28:13.234Z,99157.42
2018-12-07T03:30:42.257Z,99161.21
2018-12-07T03:33:10.815Z,99158.58
2018-12-07T03:35:40.003Z,99159.41
2018-12-07T03:38:08.565Z,99156.33
2018-12-07T03:40:37.139Z,99150.16
2018-12-07T03:43:06.174Z,99151.11
2018-12-07T03:45:34.752Z,99150.88
2018-12-07T03:48:03.401Z,99150.46
2018-12-07T03:50:31.982Z,99139.52
2018-12-07T03:53:00.588Z,99135.60
2018-12-07T03:55:29.135Z,99135.13
2018-12-07T03:57:57.646Z,99138.60
2018-12-07T04:00:26.235Z,99136.86
2018-12-07T04:02:54.764Z,99138.20
2018-12-07T04:05:23.328Z,99139.52
2018-12-07T04:07:51.925Z,99137.06
2018-12-07T04:10:21.419Z,99137.48
2018-12-07T04:12:50.238Z,99148.98
2018-12-07T04:15:18.952Z,99140.85
2018-12-07T04:17:47.809Z,99137.78
2018-12-07T04:20:16.397Z,99135.94
2018-12-07T04:22:45.050Z,99151.28
2018-12-07T04:25:13.805Z,99107.77
2018-12-07T04:27:42.327Z,99135.80
2018-12-07T04:30:25.507Z,99140.03
2018-12-07T04:32:54.264Z,99141.42
2018-12-07T04:35:22.981Z,99125.06
2018-12-07T04:37:51.483Z,99125.33
2018-12-07T04:40:20.694Z,99127.11
2018-12-07T04:42:50.736Z,99118.84
2018-12-07T04:45:19.336Z,99116.97
2018-12-07T04:47:48.757Z,99109.47
2018-12-07T04:50:17.357Z,99099.39
2018-12-07T04:52:46.042Z,99093.59
2018-12-07T04:55:14.698Z,99102.44
2018-12-07T04:57:43.348Z,99084.25
2018-12-07T05:00:11.878Z,99072.05
2018-12-07T05:02:41.155Z,99070.52
2018-12-07T05:05:11.187Z,99078.42
2018-12-07T05:07:39.960Z,99067.03
2018-12-07T05:10:08.574Z,99065.70
2018-12-07T05:12:37.234Z,99056.53
2018-12-07T05:15:06.849Z,99060.15
2018-12-07T05:17:35.400Z,99064.65
2018-12-07T05:20:04.596Z,99067.14
2018-12-07T05:22:33.217Z,99059.16
2018-12-07T05:25:01.756Z,99058.27
2018-12-07T05:27:30.502Z,99047.78
2018-12-07T05:29:59.019Z,99046.95
2018-12-07T05:32:28.242Z,99047.57
2018-12-07T05:34:56.810Z,99043.48
2018-12-07T05:37:25.275Z,99042.59
2018-12-07T05:39:54.326Z,99029.30
2018-12-07T05:42:22.864Z,99032.58
2018-12-07T05:44:51.421Z,99031.89
2018-12-07T05:47:19.895Z,99025.15
2018-12-07T05:49:48.588Z,99024.67
2018-12-07T05:52:17.769Z,99031.00
2018-12-07T05:54:46.399Z,99021.23
2018-12-07T05:57:16.042Z,99023.64
2018-12-07T05:59:44.711Z,99021.98
2018-12-07T06:02:13.266Z,99025.77
2018-12-07T06:04:41.950Z,99026.81
2018-12-07T06:07:11.982Z,99033.32
2018-12-07T06:09:41.895Z,99028.06
2018-12-07T06:12:12.447Z,99025.92
2018-12-07T06:14:42.286Z,99022.97
2018-12-07T06:17:10.868Z,99020.23
2018-12-07T06:19:40.847Z,99025.83
2018-12-07T06:22:10.051Z,99024.59
2018-12-07T06:24:39.147Z,99008.83
2018-12-07T06:27:08.396Z,99018.39
2018-12-07T06:29:37.159Z,99021.50
2018-12-07T06:32:05.948Z,99015.33
2018-12-07T06:34:34.496Z,99008.81
2018-12-07T06:37:03.046Z,99004.52
2018-12-07T06:39:31.627Z,98998.39
2018-12-07T06:42:00.163Z,98993.64
2018-12-07T06:44:29.036Z,98983.88
2018-12-07T06:46:57.537Z,98986.31
2018-12-07T06:49:26.235Z,98978.25
2018-12-07T06:51:54.778Z,98977.84
2018-12-07T06:54:23.349Z,98971.59
2018-12-07T06:56:51.867Z,98965.89
2018-12-07T06:59:20.419Z,98966.89
2018-12-07T07:01:49.281Z,98960.60
2018-12-07T07:04:17.822Z,98961.97
2018-12-07T07:06:46.272Z,98957.81
2018-12-07T07:09:14.770Z,98958.63
2018-12-07T07:11:43.230Z,98958.70
2018-12-07T07:14:11.773Z,98968.05
2018-12-07T07:16:40.234Z,98970.45
2018-12-07T07:19:09.534Z,98965.20
2018-12-07T07:21:38.081Z,98950.84
2018-12-07T07:24:08.123Z,98947.94
2018-12-07T07:26:36.605Z,98937.44
2018-12-07T07:29:05.203Z,98939.70
2018-12-07T07:31:33.774Z,98939.57
2018-12-07T07:34:02.789Z,98934.37
2018-12-07T07:36:31.381Z,98932.23
2018-12-07T07:38:59.801Z,98932.78
2018-12-07T07:41:28.706Z,98936.55
2018-12-07T07:43:57.259Z,98934.21
2018-12-07T07:46:25.765Z,98927.59
2018-12-07T07:48:54.271Z,98929.13
2018-12-07T07:51:23.418Z,98923.08
2018-12-07T07:53:51.887Z,98914.97
2018-12-07T07:56:20.410Z,98918.08
2018-12-07T07:58:49.025Z,98912.31
2018-12-07T08:01:18.391Z,98905.67
2018-12-07T08:03:46.925Z,98911.41
2018-12-07T08:06:15.349Z,98905.95
2018-12-07T08:08:43.766Z,98902.70
2018-12-07T08:11:12.270Z,98900.69
2018-12-07T08:13:40.786Z,98894.38
2018-12-07T08:16:09.454Z,98896.98
2018-12-07T08:18:37.998Z,98891.24
2018-12-07T08:21:06.494Z,98899.61
2018-12-07T08:23:35.622Z,98902.69
2018-12-07T08:26:04.160Z,98889.98
2018-12-07T08:28:32.831Z,98889.32
2018-12-07T08:31:01.359Z,98886.46
2018-12-07T08:33:29.845Z,98885.05
2018-12-07T08:35:58.390Z,98888.47
2018-12-07T08:38:27.233Z,98884.94
2018-12-07T08:40:55.838Z,98882.75
2018-12-07T08:43:24.285Z,98874.45
2018-12-07T08:45:52.766Z,98873.25
2018-12-07T08:48:21.237Z,98875.29
2018-12-07T08:50:49.734Z,98870.46
2018-12-07T08:53:18.226Z,98872.86
2018-12-07T08:55:46.789Z,98865.99
2018-12-07T08:58:15.370Z,98858.55
2018-12-07T09:00:43.916Z,98863.08
2018-12-07T09:03:12.422Z,98861.81
2018-12-07T09:05:40.926Z,98863.67
2018-12-07T09:08:15.250Z,98861.81
2018-12-07T09:10:39.898Z,98859.43
2018-12-07T09:13:09.354Z,98851.26
2018-12-07T09:15:40.266Z,98851.63
2018-12-07T09:18:08.897Z,98853.89
2018-12-07T09:20:37.553Z,98851.57
2018-12-07T09:23:06.551Z,98848.52
2018-12-07T09:25:36.055Z,98841.95
2018-12-07T09:28:04.831Z,98843.53
2018-12-07T09:30:33.893Z,98840.42
2018-12-07T09:33:03.660Z,98845.13
2018-12-07T09:35:32.242Z,98845.75
2018-12-07T09:38:00.700Z,98844.67
2018-12-07T09:40:30.189Z,98835.17
2018-12-07T09:42:58.689Z,98828.58
2018-12-07T09:45:28.341Z,98814.44
2018-12-07T09:47:56.885Z,98808.38
2018-12-07T09:50:25.349Z,98805.59
2018-12-07T09:52:53.805Z,98794.31
2018-12-07T09:55:22.266Z,98794.97
2018-12-07T09:57:50.857Z,98796.83
2018-12-07T10:00:19.366Z,98798.83
2018-12-07T10:02:48.466Z,98800.72
2018-12-07T10:05:17.074Z,98805.24
2018-12-07T10:07:45.636Z,98794.30
2018-12-07T10:10:14.187Z,98792.67
2018-12-07T10:12:42.711Z,98789.12
2018-12-07T10:15:11.210Z,98782.41
2018-12-07T10:17:39.654Z,98782.31
2018-12-07T10:20:08.253Z,98777.22
2018-12-07T10:22:37.929Z,98769.86
2018-12-07T10:25:07.493Z,98762.97
2018-12-07T10:27:36.364Z,98754.66
2018-12-07T10:30:05.050Z,98751.08
2018-12-07T10:32:35.086Z,98743.34
2018-12-07T10:35:03.649Z,98732.17
2018-12-07T10:37:32.208Z,98729.86
2018-12-07T10:40:00.676Z,98731.38
2018-12-07T10:42:30.347Z,98731.00
2018-12-07T10:44:58.770Z,98729.59
2018-12-07T10:47:28.769Z,98731.48
2018-12-07T10:49:57.213Z,98721.46
2018-12-07T10:52:25.795Z,98709.83
2018-12-07T10:54:54.333Z,98713.77
2018-12-07T10:57:22.950Z,98701.81
2018-12-07T10:59:51.426Z,98702.98
2018-12-07T11:02:25.196Z,98687.05
2018-12-07T11:04:59.041Z,98687.94
2018-12-07T11:07:33.709Z,98668.23
2018-12-07T11:10:07.575Z,98669.05
2018-12-07T11:14:46.659Z,98666.48
2018-12-07T11:17:20.425Z,98645.55
2018-12-07T11:19:54.067Z,98641.34
2018-12-07T11:22:27.905Z,98635.97
2018-12-07T11:25:01.942Z,98633.22
2018-12-07T11:27:35.634Z,98625.14
2018-12-07T11:30:09.745Z,98630.59
2018-12-07T11:32:43.450Z,98620.02
2018-12-07T11:35:15.387Z,98621.86
2018-12-07T11:37:44.334Z,98614.37
2018-12-07T11:40:12.867Z,98610.05
2018-12-07T11:42:41.487Z,98613.66
2018-12-07T11:45:11.382Z,98599.05
2018-12-07T11:47:39.867Z,98590.31
2018-12-07T11:50:10.014Z,98584.01
2018-12-07T11:52:38.477Z,98577.92
2018-12-07T11:55:06.994Z,98577.73
2018-12-07T11:57:35.490Z,98573.68
2018-12-07T12:00:04.102Z,98561.09
2018-12-07T12:02:32.715Z,98561.75
2018-12-07T12:05:01.228Z,98559.28
2018-12-07T12:07:30.351Z,98545.43
2018-12-07T12:09:58.806Z,98543.29
2018-12-07T12:12:28.077Z,98528.38
2018-12-07T12:14:56.556Z,98523.33
2018-12-07T12:17:26.027Z,98517.00
2018-12-07T12:19:54.678Z,98518.75
2018-12-07T12:22:23.175Z,98508.16
2018-12-07T12:24:52.384Z,98493.24
2018-12-07T12:27:20.806Z,98479.11
2018-12-07T12:29:50.407Z,98486.89
2018-12-07T12:32:18.883Z,98442.77
2018-12-07T12:34:47.395Z,98463.77
2018-12-07T12:37:15.863Z,98465.53
2018-12-07T12:39:44.355Z,98451.47
2018-12-07T12:42:12.769Z,98457.70
2018-12-07T12:44:41.341Z,98448.52
2018-12-07T12:47:09.762Z,98419.23
2018-12-07T12:49:38.286Z,98430.11
2018-12-07T12:52:06.897Z,98421.66
2018-12-07T12:54:35.345Z,98419.30
2018-12-07T12:57:04.180Z,98402.63
2018-12-07T12:59:35.216Z,98397.89
2018-12-07T13:02:04.278Z,98390.38
2018-12-07T13:04:33.430Z,98391.55
2018-12-07T13:07:03.804Z,98382.08
2018-12-07T13:09:32.406Z,98381.41
2018-12-07T13:12:05.262Z,98360.56
2018-12-07T13:14:35.357Z,98351.22
2018-12-07T13:17:13.775Z,98347.30
2018-12-07T13:19:46.038Z,98332.00
2018-12-07T13:22:15.474Z,98325.85
2018-12-07T13:24:44.141Z,98319.75
2018-12-07T13:27:15.438Z,98308.45
2018-12-07T13:29:44.004Z,98303.81
2018-12-07T13:32:13.017Z,98301.61
2018-12-07T13:34:41.637Z,98288.38
2018-12-07T13:37:10.915Z,98296.11
2018-12-07T13:39:42.735Z,98297.12
2018-12-07T13:42:14.569Z,98290.81
2018-12-07T13:44:43.553Z,98287.84
2018-12-07T13:47:13.548Z,98277.02
2018-12-07T13:49:42.493Z,98280.30
2018-12-07T13:52:11.586Z,98263.55
2018-12-07T13:54:40.298Z,98270.44
2018-12-07T13:57:09.142Z,98260.86
2018-12-07T13:59:37.914Z,98249.58
2018-12-07T14:02:06.652Z,98242.77
2018-12-07T14:04:35.233Z,98244.39
2018-12-07T14:07:03.985Z,98235.96
2018-12-07T14:09:37.177Z,98234.77
2018-12-07T14:12:05.850Z,98248.53
2018-12-07T14:14:34.838Z,98245.88
2018-12-07T14:17:03.510Z,98236.61
2018-12-07T14:19:32.103Z,98231.63
2018-12-07T14:22:00.778Z,98223.80
2018-12-07T14:24:29.603Z,98208.84
2018-12-07T14:26:59.716Z,98215.14
2018-12-07T14:29:29.768Z,98220.23
2018-12-07T14:31:58.940Z,98219.05
2018-12-07T14:34:28.269Z,98216.35
2018-12-07T14:36:56.796Z,98201.09
2018-12-07T14:39:25.336Z,98188.72
2018-12-07T14:41:54.245Z,98200.38
2018-12-07T14:44:22.822Z,98213.48
2018-12-07T14:46:51.386Z,98220.64
2018-12-07T14:49:20.155Z,98200.91
2018-12-07T14:51:49.248Z,98199.31
2018-12-07T14:54:17.910Z,98186.65
2018-12-07T14:56:46.570Z,98183.43
2018-12-07T14:59:15.186Z,98185.17
2018-12-07T15:01:43.805Z,98172.71
2018-12-07T15:04:13.076Z,98156.61
2018-12-07T15:06:41.748Z,98155.92
2018-12-07T15:09:10.475Z,98145.46
2018-12-07T15:11:39.385Z,98134.23
2018-12-07T15:14:08.773Z,98136.53
2018-12-07T15:16:37.407Z,98123.28
2018-12-07T15:19:06.309Z,98120.25
2018-12-07T15:21:35.014Z,98113.72
2018-12-07T15:24:04.614Z,98115.47
2018-12-07T15:26:33.517Z,98106.91
2018-12-07T15:29:02.484Z,98102.61
2018-12-07T15:31:31.858Z,98107.09
2018-12-07T15:34:00.575Z,98093.34
2018-12-07T15:36:29.976Z,98080.24
2018-12-07T15:39:00.097Z,98076.94
2018-12-07T15:41:28.886Z,98079.08
2018-12-07T15:43:57.634Z,98064.31
2018-12-07T15:46:27.666Z,98065.81
2018-12-07T15:48:56.893Z,98063.13
2018-12-07T15:51:25.817Z,98047.71
2018-12-07T15:53:54.744Z,98043.71
2018-12-07T15:56:23.388Z,98043.73
2018-12-07T15:58:52.157Z,98037.41
2018-12-07T16:01:21.494Z,98014.19
2018-12-07T16:03:50.355Z,98016.34
2018-12-07T16:06:20.543Z,98006.91
2018-12-07T16:08:49.883Z,97986.14
2018-12-07T16:11:18.681Z,97981.94
2018-12-07T16:13:47.570Z,97964.53
2018-12-07T16:16:16.320Z,97963.39
2018-12-07T16:18:44.921Z,97973.31
2018-12-07T16:21:13.890Z,97963.54
2018-12-07T16:23:42.572Z,97962.55
2018-12-07T16:26:14.198Z,97947.95
2018-12-07T16:28:42.867Z,97950.60
2018-12-07T16:31:11.542Z,97942.64
2018-12-07T16:33:40.354Z,97940.14
2018-12-07T16:36:09.271Z,97934.02
2018-12-07T16:38:38.453Z,97927.21
2018-12-07T16:41:08.084Z,97936.98
2018-12-07T16:43:37.656Z,97943.11
2018-12-07T16:46:18.079Z,97935.67
2018-12-07T16:48:46.930Z,97942.77
2018-12-07T16:51:15.794Z,97943.31
2018-12-07T16:53:44.906Z,97949.08
2018-12-07T16:56:13.581Z,97944.77
2018-12-07T16:58:42.296Z,97937.11
2018-12-07T17:01:10.941Z,97932.49
2018-12-07T17:03:40.031Z,97898.48
2018-12-07T17:06:08.732Z,97899.33
2018-12-07T17:08:37.461Z,97915.91
2018-12-07T17:11:06.078Z,97905.30
2018-12-07T17:13:35.110Z,97909.95
2018-12-07T17:16:03.672Z,97912.27
2018-12-07T17:18:32.315Z,97910.77
2018-12-07T17:21:01.024Z,97900.50
2018-12-07T17:23:30.665Z,97891.53
2018-12-07T17:25:59.218Z,97879.77
2018-12-07T17:28:28.985Z,97870.47
2018-12-07T17:30:57.610Z,97878.95
2018-12-07T17:33:26.989Z,97879.11
2018-12-07T17:35:55.550Z,97866.66
2018-12-07T17:38:24.010Z,97861.69
2018-12-07T17:40:52.675Z,97851.61
2018-12-07T17:43:30.007Z,97855.25
2018-12-07T17:46:02.453Z,97841.16
2018-12-07T17:48:31.391Z,97836.70
2018-12-07T17:50:59.977Z,97837.17
2018-12-07T17:53:29.979Z,97832.05
2018-12-07T17:55:58.558Z,97833.69
2018-12-07T17:58:27.739Z,97820.77
2018-12-07T18:00:56.461Z,97823.41
2018-12-07T18:03:25.519Z,97790.94
2018-12-07T18:05:54.008Z,97816.30
2018-12-07T18:08:22.943Z,97823.25
2018-12-07T18:10:51.631Z,97831.70
2018-12-07T18:13:20.273Z,97832.05
2018-12-07T18:15:50.126Z,97836.52
2018-12-07T18:18:18.783Z,97842.16
2018-12-07T18:20:47.501Z,97840.15
2018-12-07T18:23:16.156Z,97833.19
2018-12-07T18:25:44.797Z,97832.86
2018-12-07T18:28:13.310Z,97847.45
2018-12-07T18:30:41.993Z,97855.59
2018-12-07T18:33:10.727Z,97851.94
2018-12-07T18:35:39.526Z,97865.71
2018-12-07T18:38:09.461Z,97866.53
2018-12-07T18:40:38.372Z,97867.02
2018-12-07T18:43:06.993Z,97880.13
2018-12-07T18:45:35.518Z,97882.09
2018-12-07T18:48:04.215Z,97894.52
2018-12-07T18:50:32.984Z,97896.32
2018-12-07T18:53:03.400Z,97891.52
2018-12-07T18:55:31.995Z,97914.02
2018-12-07T18:58:00.538Z,97933.18
2018-12-07T19:00:29.708Z,97934.28
2018-12-07T19:02:58.345Z,97958.95
2018-12-07T19:05:27.064Z,97955.94
2018-12-07T19:07:55.843Z,97952.94
2018-12-07T19:10:24.490Z,97972.59
2018-12-07T19:12:53.425Z,97983.48
2018-12-07T19:15:22.237Z,97982.45
2018-12-07T19:17:51.546Z,98006.20
2018-12-07T19:20:20.329Z,98033.16
2018-12-07T19:22:48.968Z,98034.63
2018-12-07T19:25:18.576Z,98056.94
2018-12-07T19:27:47.450Z,98044.36
2018-12-07T19:30:16.945Z,98065.02
2018-12-07T19:32:45.968Z,98078.63
2018-12-07T19:35:14.654Z,98090.91
2018-12-07T19:37:43.528Z,98106.70
2018-12-07T19:40:12.241Z,98124.63
2018-12-07T19:42:40.945Z,98134.61
2018-12-07T19:45:10.666Z,98125.95
2018-12-07T19:47:40.182Z,98120.93
2018-12-07T19:50:09.967Z,98122.34
2018-12-07T19:52:38.981Z,98139.03
2018-12-07T19:55:08.220Z,98139.91
2018-12-07T19:57:38.477Z,98135.56
2018-12-07T20:00:09.237Z,98148.52
2018-12-07T20:02:37.723Z,98153.90
2018-12-07T20:05:06.320Z,98157.06
2018-12-07T20:07:34.893Z,98168.77
2018-12-07T20:10:03.649Z,98167.93
2018-12-07T20:12:32.252Z,98182.67
2018-12-07T20:15:01.171Z,98182.06
2018-12-07T20:17:30.370Z,98187.41
2018-12-07T20:19:59.004Z,98200.44
2018-12-07T20:22:27.932Z,98206.02
2018-12-07T20:24:56.758Z,98218.06
2018-12-07T20:27:25.846Z,98212.52
2018-12-07T20:29:55.058Z,98223.22
2018-12-07T20:32:23.712Z,98224.14
2018-12-07T20:34:52.395Z,98222.77
2018-12-07T20:37:21.629Z,98233.52
2018-12-07T20:39:50.375Z,98233.66
2018-12-07T20:42:19.398Z,98238.50
2018-12-07T20:44:48.915Z,98246.77
2018-12-07T20:47:24.548Z,98243.19
2018-12-07T20:49:49.436Z,98241.06
2018-12-07T20:52:18.616Z,98256.20
2018-12-07T20:54:47.381Z,98266.33
2018-12-07T20:57:16.366Z,98284.91
2018-12-07T20:59:45.119Z,98291.16
2018-12-07T21:02:14.091Z,98259.49
2018-12-07T21:04:43.077Z,98309.50
2018-12-07T21:07:56.358Z,98328.02
2018-12-07T21:11:37.192Z,98336.88
2018-12-07T21:14:19.187Z,98348.91
2018-12-07T21:17:07.156Z,98353.02
2018-12-07T21:19:37.276Z,98360.20
2018-12-07T21:22:05.862Z,98363.19
2018-12-07T21:24:34.759Z,98358.46
2018-12-07T21:27:03.918Z,98356.05
2018-12-07T21:29:32.994Z,98357.27
2018-12-07T21:32:03.146Z,98364.00
2018-12-07T21:34:47.943Z,98373.46
2018-12-07T21:37:16.795Z,98380.05
2018-12-07T21:39:48.092Z,98395.15
2018-12-07T21:42:18.282Z,98404.84
2018-12-07T21:44:47.340Z,98405.39
2018-12-07T21:47:16.384Z,98409.36
2018-12-07T21:49:52.476Z,98405.25
2018-12-07T21:52:24.476Z,98420.22
2018-12-07T21:54:54.082Z,98423.58
2018-12-07T21:57:22.911Z,98432.14
2018-12-07T21:59:51.902Z,98431.30
2018-12-07T22:02:20.728Z,98437.09
2018-12-07T22:04:49.583Z,98439.09
2018-12-07T22:07:18.994Z,98438.55
2018-12-07T22:09:49.048Z,98341.38
2018-12-07T22:12:17.664Z,98447.89
2018-12-07T22:14:46.507Z,98456.16
2018-12-07T22:17:15.068Z,98459.42
2018-12-07T22:19:43.995Z,98463.80
2018-12-07T22:22:12.946Z,98462.09
2018-12-07T22:24:41.690Z,98461.44
2018-12-07T22:27:10.825Z,98471.66
2018-12-07T22:29:41.049Z,98477.78
2018-12-07T22:32:10.731Z,98489.33
2018-12-07T22:34:39.520Z,98484.42
2018-12-07T22:37:08.484Z,98480.33
2018-12-07T22:39:37.095Z,98493.63
2018-12-07T22:42:05.772Z,98489.36
2018-12-07T22:44:34.798Z,98496.77
2018-12-07T22:47:04.143Z,98502.15
2018-12-07T22:49:32.806Z,98505.80
2018-12-07T22:52:01.323Z,98515.58
2018-12-07T22:54:30.374Z,98535.16
2018-12-07T22:56:58.986Z,98535.98
2018-12-07T22:59:27.889Z,98523.17
2018-12-07T23:01:56.422Z,98518.30
2018-12-07T23:04:25.957Z,98525.75
2018-12-07T23:06:54.503Z,98534.36
2018-12-07T23:09:23.060Z,98533.78
2018-12-07T23:11:51.698Z,98547.02
2018-12-07T23:14:20.148Z,98554.13
2018-12-07T23:16:48.694Z,98555.44
2018-12-07T23:19:17.513Z,98561.41
2018-12-07T23:21:45.973Z,98552.59
2018-12-07T23:24:14.690Z,98559.31
2018-12-07T23:26:43.303Z,98560.11
2018-12-07T23:29:22.595Z,98562.45
2018-12-07T23:31:51.269Z,98569.63
2018-12-07T23:34:19.788Z,98562.67
2018-12-07T23:36:49.291Z,98561.06
2018-12-07T23:39:18.845Z,98573.00
2018-12-07T23:41:47.761Z,98583.06
2018-12-07T23:44:16.545Z,97780.16
2018-12-07T23:46:45.065Z,98581.31
2018-12-07T23:49:14.141Z,98586.89
2018-12-07T23:51:42.679Z,98583.73
2018-12-07T23:54:11.210Z,98580.05
2018-12-07T23:56:39.733Z,98589.22
2018-12-07T23:59:08.271Z,98594.10
